Time;durP1;ratioP1;P1;durP2;ratioP2;P2;SDS_P1;SDS_P2;PMS_P1;PMS_P2;Temp;Humidity;BMP_temperature;BMP_pressure;BME280_temperature;BME280_humidity;BME280_pressure;Samples;Min_cycle;Max_cycle;Signal;HPM_P1;HPM_P2
2021/08/22 00:02:01;;;;;;;2.50;1.60;;;19.40;99.90;;;;;;4898841;29;20499;-87
2021/08/22 00:04:28;;;;;;;1.80;1.30;;;19.40;99.90;;;;;;4898582;29;20445;-87
2021/08/22 00:06:55;;;;;;;1.60;1.50;;;19.40;99.90;;;;;;4899082;29;20968;-87
2021/08/22 00:09:23;;;;;;;2.20;1.47;;;19.50;99.90;;;;;;4898707;29;20934;-87
2021/08/22 00:11:50;;;;;;;4.20;1.73;;;19.50;99.90;;;;;;4898672;29;20453;-87
2021/08/22 00:14:17;;;;;;;1.73;1.40;;;19.50;99.90;;;;;;4898582;29;20461;-89
2021/08/22 00:16:45;;;;;;;2.30;1.23;;;19.60;99.90;;;;;;4898646;29;20448;-88
2021/08/22 00:19:12;;;;;;;9.13;1.80;;;19.60;99.90;;;;;;4881522;29;20457;-80
2021/08/22 00:21:39;;;;;;;1.50;1.40;;;19.40;99.90;;;;;;4898278;29;20492;-81
2021/08/22 00:24:06;;;;;;;1.93;0.80;;;19.10;99.90;;;;;;4898272;29;20464;-82
2021/08/22 00:26:34;;;;;;;1.37;0.77;;;18.80;99.90;;;;;;4899677;29;20457;-83
2021/08/22 00:29:01;;;;;;;1.47;0.70;;;18.50;99.90;;;;;;4898400;29;20456;-83
2021/08/22 00:31:43;;;;;;;0.50;0.40;;;18.30;99.90;;;;;;4898369;29;20460;-86
2021/08/22 00:34:10;;;;;;;0.60;0.50;;;18.00;99.90;;;;;;4897353;29;20487;-82
2021/08/22 00:36:36;;;;;;;0.40;0.40;;;17.70;99.90;;;;;;4898417;29;20455;-81
2021/08/22 00:39:03;;;;;;;0.37;0.37;;;17.50;99.90;;;;;;4898146;29;20461;-81
2021/08/22 00:41:31;;;;;;;0.40;0.40;;;17.30;99.90;;;;;;4898329;29;20515;-81
2021/08/22 00:43:59;;;;;;;1.10;0.50;;;17.20;99.90;;;;;;4897791;29;20477;-80
2021/08/22 00:46:26;;;;;;;0.77;0.43;;;17.10;99.90;;;;;;4901964;29;20449;-81
2021/08/22 00:48:53;;;;;;;0.40;0.30;;;17.10;99.90;;;;;;4901947;29;20479;-81
2021/08/22 00:51:20;;;;;;;0.57;0.40;;;17.10;99.90;;;;;;4901911;29;20475;-80
2021/08/22 00:53:47;;;;;;;0.60;0.40;;;17.00;99.90;;;;;;4901565;29;20465;-82
2021/08/22 00:56:15;;;;;;;0.33;0.30;;;17.00;99.90;;;;;;4901842;29;20457;-83
2021/08/22 00:58:42;;;;;;;0.50;0.50;;;17.00;99.90;;;;;;4901299;29;20495;-82
2021/08/22 01:01:15;;;;;;;0.50;0.50;;;16.90;99.90;;;;;;4901612;29;20457;-82
2021/08/22 01:03:50;;;;;;;1.57;0.40;;;16.90;99.90;;;;;;4901667;29;20472;-82
2021/08/22 01:06:28;;;;;;;0.43;0.40;;;16.90;99.90;;;;;;4901660;29;20440;-82
2021/08/22 01:09:00;;;;;;;0.80;0.50;;;16.90;99.90;;;;;;4901410;29;20413;-82
2021/08/22 01:11:30;;;;;;;0.70;0.40;;;16.90;99.90;;;;;;4901572;29;20429;-83
2021/08/22 01:14:01;;;;;;;0.70;0.53;;;16.90;99.90;;;;;;4901123;29;21012;-82
2021/08/22 01:16:34;;;;;;;0.70;0.60;;;16.80;99.90;;;;;;4901471;29;20433;-83
2021/08/22 01:19:08;;;;;;;0.60;0.30;;;16.70;99.90;;;;;;4901172;29;20428;-83
2021/08/22 01:21:36;;;;;;;2.50;0.73;;;16.70;99.90;;;;;;4901004;29;20477;-83
2021/08/22 01:24:04;;;;;;;1.30;0.80;;;16.80;99.90;;;;;;4901399;29;20472;-83
2021/08/22 01:26:35;;;;;;;1.33;0.60;;;16.70;99.90;;;;;;4901233;29;20461;-83
2021/08/22 01:29:03;;;;;;;0.37;0.33;;;16.60;99.90;;;;;;4901396;29;20461;-83
2021/08/22 01:31:44;;;;;;;0.43;0.40;;;16.60;99.90;;;;;;4900870;29;20453;-83
2021/08/22 01:34:14;;;;;;;0.60;0.40;;;16.60;99.90;;;;;;4900758;29;20522;-83
2021/08/22 01:36:42;;;;;;;0.60;0.57;;;16.60;99.90;;;;;;4901103;29;20437;-83
2021/08/22 01:39:10;;;;;;;0.40;0.30;;;16.60;99.90;;;;;;4901050;29;20468;-83
2021/08/22 01:41:37;;;;;;;0.30;0.30;;;16.60;99.90;;;;;;4901324;29;20515;-83
2021/08/22 01:44:05;;;;;;;0.50;0.43;;;16.70;99.90;;;;;;4900660;29;20463;-83
2021/08/22 01:46:33;;;;;;;1.50;0.80;;;16.70;99.90;;;;;;4900618;29;20883;-83
2021/08/22 01:49:00;;;;;;;0.40;0.40;;;16.60;99.90;;;;;;4901238;29;20471;-83
2021/08/22 01:51:29;;;;;;;0.97;0.70;;;16.60;99.90;;;;;;4900748;29;20949;-83
2021/08/22 01:53:59;;;;;;;0.30;0.30;;;16.70;99.90;;;;;;4900681;29;21015;-83
2021/08/22 01:56:27;;;;;;;0.50;0.40;;;16.70;99.90;;;;;;4900168;29;20808;-83
2021/08/22 01:58:53;;;;;;;0.40;0.30;;;16.70;99.90;;;;;;4900697;29;20464;-83
2021/08/22 02:01:20;;;;;;;0.40;0.40;;;16.60;99.90;;;;;;4900577;29;20460;-83
2021/08/22 02:03:51;;;;;;;0.33;0.30;;;16.60;99.90;;;;;;4900782;29;20477;-84
2021/08/22 02:06:22;;;;;;;0.90;0.67;;;16.60;99.90;;;;;;4900552;29;20452;-83
2021/08/22 02:08:55;;;;;;;0.67;0.67;;;16.60;99.90;;;;;;4900523;29;20442;-83
2021/08/22 02:11:26;;;;;;;0.90;0.40;;;16.60;99.90;;;;;;4901257;29;20445;-83
2021/08/22 02:13:55;;;;;;;1.00;0.50;;;16.60;99.90;;;;;;4900417;29;20479;-83
2021/08/22 02:16:26;;;;;;;0.50;0.50;;;16.60;99.90;;;;;;4900157;29;20445;-83
2021/08/22 02:18:53;;;;;;;0.40;0.33;;;16.60;99.90;;;;;;4900432;29;20422;-83
2021/08/22 02:21:20;;;;;;;0.40;0.40;;;16.60;99.90;;;;;;4899964;29;20965;-83
2021/08/22 02:23:48;;;;;;;0.97;0.70;;;16.60;99.90;;;;;;4900191;29;20528;-83
2021/08/22 02:26:17;;;;;;;0.40;0.30;;;16.60;99.90;;;;;;4900177;29;20457;-83
2021/08/22 02:28:44;;;;;;;0.40;0.40;;;16.60;99.90;;;;;;4900179;29;20515;-83
2021/08/22 02:31:13;;;;;;;0.80;0.53;;;16.60;99.90;;;;;;4900102;29;20453;-84
2021/08/22 02:33:40;;;;;;;0.30;0.30;;;16.50;99.90;;;;;;4899881;29;20492;-84
2021/08/22 02:36:07;;;;;;;0.53;0.37;;;16.50;99.90;;;;;;4900022;29;20954;-83
2021/08/22 02:38:33;;;;;;;0.67;0.40;;;16.50;99.90;;;;;;4900175;29;20457;-84
2021/08/22 02:41:00;;;;;;;1.90;0.73;;;16.50;99.90;;;;;;4899947;29;20467;-83
2021/08/22 02:43:28;;;;;;;0.40;0.40;;;16.50;99.90;;;;;;4899997;29;20507;-82
2021/08/22 02:45:55;;;;;;;1.07;0.40;;;16.40;99.90;;;;;;4900346;29;20452;-82
2021/08/22 02:48:22;;;;;;;0.40;0.40;;;16.40;99.90;;;;;;4900340;29;20472;-82
2021/08/22 02:50:49;;;;;;;1.33;0.30;;;16.40;99.90;;;;;;4900595;29;20452;-81
2021/08/22 02:53:15;;;;;;;1.60;0.40;;;16.30;99.90;;;;;;4902398;29;20476;-82
2021/08/22 02:55:42;;;;;;;0.50;0.40;;;16.30;99.90;;;;;;4902128;29;20466;-82
2021/08/22 02:58:09;;;;;;;2.40;0.40;;;16.30;99.90;;;;;;4900783;29;20834;-82
2021/08/22 03:00:37;;;;;;;0.83;0.50;;;16.30;99.90;;;;;;4901726;29;20452;-82
2021/08/22 03:03:04;;;;;;;1.07;0.30;;;16.30;99.90;;;;;;4901793;29;20497;-82
2021/08/22 03:05:31;;;;;;;0.40;0.40;;;16.30;99.90;;;;;;4901102;29;20466;-82
2021/08/22 03:07:57;;;;;;;1.13;0.67;;;16.30;99.90;;;;;;4899789;29;20449;-81
2021/08/22 03:10:24;;;;;;;0.40;0.40;;;16.30;99.90;;;;;;4899652;29;20453;-81
2021/08/22 03:12:51;;;;;;;0.50;0.40;;;16.30;99.90;;;;;;4899372;29;20484;-81
2021/08/22 03:15:18;;;;;;;0.70;0.50;;;16.30;99.90;;;;;;4899399;29;20460;-81
2021/08/22 03:17:46;;;;;;;0.70;0.53;;;16.30;99.90;;;;;;4899248;29;20457;-81
2021/08/22 03:20:13;;;;;;;0.50;0.40;;;16.40;99.90;;;;;;4899173;29;20452;-81
2021/08/22 03:22:42;;;;;;;0.40;0.30;;;16.40;99.90;;;;;;4898993;29;20500;-81
2021/08/22 03:25:09;;;;;;;0.50;0.50;;;16.40;99.90;;;;;;4899110;29;20465;-82
2021/08/22 03:27:36;;;;;;;0.50;0.37;;;16.40;99.90;;;;;;4899069;29;20455;-81
2021/08/22 03:30:03;;;;;;;3.30;0.60;;;16.30;99.90;;;;;;4898986;29;20441;-81
2021/08/22 03:32:30;;;;;;;0.60;0.40;;;16.30;99.90;;;;;;4898653;29;20485;-82
2021/08/22 03:34:58;;;;;;;0.30;0.30;;;16.30;99.90;;;;;;4898955;29;20445;-81
2021/08/22 03:37:25;;;;;;;0.30;0.30;;;16.30;99.90;;;;;;4899016;29;20444;-81
2021/08/22 03:39:52;;;;;;;0.50;0.47;;;16.20;99.90;;;;;;4899028;29;20460;-82
2021/08/22 03:42:19;;;;;;;0.40;0.40;;;16.20;99.90;;;;;;4898825;29;20493;-82
2021/08/22 03:44:46;;;;;;;0.40;0.40;;;16.20;99.90;;;;;;4898679;29;20958;-81
2021/08/22 03:47:12;;;;;;;0.80;0.50;;;16.20;99.90;;;;;;4898665;29;20823;-82
2021/08/22 03:49:39;;;;;;;0.40;0.30;;;16.10;99.90;;;;;;4898695;29;20456;-82
2021/08/22 03:52:08;;;;;;;0.97;0.50;;;16.20;99.90;;;;;;4898697;29;20492;-82
2021/08/22 03:54:34;;;;;;;1.80;0.50;;;16.20;99.90;;;;;;4899665;29;20464;-82
2021/08/22 03:57:01;;;;;;;0.53;0.40;;;16.20;99.90;;;;;;4898658;29;20448;-82
2021/08/22 03:59:28;;;;;;;0.97;0.70;;;16.20;99.90;;;;;;4898367;29;20445;-82
2021/08/22 04:01:54;;;;;;;1.03;0.50;;;16.20;99.90;;;;;;4898841;29;20816;-82
2021/08/22 04:04:21;;;;;;;0.60;0.50;;;16.20;99.90;;;;;;4898262;29;20461;-82
2021/08/22 04:06:49;;;;;;;0.43;0.43;;;16.20;99.90;;;;;;4898374;29;20449;-82
2021/08/22 04:09:18;;;;;;;0.70;0.47;;;16.20;99.90;;;;;;4898540;29;20504;-82
2021/08/22 04:11:46;;;;;;;5.27;0.80;;;16.20;99.90;;;;;;4898310;29;20453;-82
2021/08/22 04:14:14;;;;;;;1.07;0.40;;;16.30;99.90;;;;;;4898414;29;20480;-82
2021/08/22 04:16:41;;;;;;;0.73;0.67;;;16.30;99.90;;;;;;4898378;29;20496;-82
2021/08/22 04:19:08;;;;;;;0.60;0.57;;;16.40;99.90;;;;;;4898001;29;20472;-82
2021/08/22 04:21:34;;;;;;;0.60;0.60;;;16.40;99.90;;;;;;4898395;29;20430;-82
2021/08/22 04:24:01;;;;;;;1.43;0.50;;;16.40;99.90;;;;;;4898092;29;20588;-82
2021/08/22 04:26:44;;;;;;;1.17;0.50;;;16.40;99.90;;;;;;4898244;29;20457;-82
2021/08/22 04:30:07;;;;;;;0.90;0.67;;;16.40;99.90;;;;;;4897816;29;20459;-81
2021/08/22 04:33:09;;;;;;;0.47;0.30;;;16.40;99.90;;;;;;4888968;29;20870;-81
2021/08/22 04:36:10;;;;;;;0.40;0.40;;;16.50;99.90;;;;;;4897840;29;20460;-81
2021/08/22 04:38:54;;;;;;;0.97;0.50;;;16.50;99.90;;;;;;4897946;29;20968;-82
2021/08/22 05:04:28;;;;;;;0.60;0.47;;;16.80;99.90;;;;;;4895706;29;20484;-81
2021/08/22 05:07:07;;;;;;;1.23;0.67;;;16.90;99.90;;;;;;4897866;29;20805;-82
2021/08/22 05:09:38;;;;;;;0.60;0.60;;;16.90;99.90;;;;;;4897909;29;20429;-81
2021/08/22 05:12:12;;;;;;;0.90;0.60;;;16.90;99.90;;;;;;4897686;29;20540;-82
2021/08/22 05:14:43;;;;;;;1.13;0.67;;;17.00;99.90;;;;;;4897793;29;20445;-82
2021/08/22 05:17:15;;;;;;;2.40;0.70;;;17.00;99.90;;;;;;4897681;29;20505;-81
2021/08/22 05:19:44;;;;;;;0.60;0.60;;;17.00;99.90;;;;;;4898622;29;20971;-81
2021/08/22 05:22:11;;;;;;;0.70;0.57;;;17.00;99.90;;;;;;4899770;29;20476;-81
2021/08/22 05:24:38;;;;;;;1.53;0.70;;;17.10;99.90;;;;;;4899085;29;20933;-81
2021/08/22 05:27:05;;;;;;;0.80;0.80;;;17.10;99.90;;;;;;4899551;29;20467;-81
2021/08/22 05:29:32;;;;;;;1.53;0.77;;;17.10;99.90;;;;;;4898835;29;20457;-81
2021/08/22 05:32:02;;;;;;;1.90;0.80;;;17.10;99.90;;;;;;4900356;29;20785;-81
2021/08/22 05:34:28;;;;;;;1.43;0.60;;;17.20;99.90;;;;;;4901167;29;20572;-81
2021/08/22 05:36:55;;;;;;;0.50;0.50;;;17.20;99.90;;;;;;4900952;29;20456;-80
2021/08/22 05:39:22;;;;;;;0.70;0.60;;;17.20;99.90;;;;;;4901029;29;20464;-80
2021/08/22 05:41:49;;;;;;;0.50;0.50;;;17.20;99.90;;;;;;4901012;29;20817;-80
2021/08/22 05:44:16;;;;;;;0.77;0.60;;;17.20;99.90;;;;;;4900901;29;20499;-80
2021/08/22 05:46:42;;;;;;;0.60;0.50;;;17.30;99.90;;;;;;4900522;29;20968;-80
2021/08/22 05:49:10;;;;;;;0.70;0.60;;;17.20;99.90;;;;;;4900834;29;20445;-82
2021/08/22 05:51:37;;;;;;;1.27;0.60;;;17.30;99.90;;;;;;4900609;29;20441;-82
2021/08/22 05:54:04;;;;;;;1.40;0.70;;;17.30;99.90;;;;;;4900528;29;20488;-82
2021/08/22 05:56:31;;;;;;;2.30;1.17;;;17.30;99.90;;;;;;4900596;29;20465;-83
2021/08/22 05:58:57;;;;;;;1.23;0.97;;;17.30;99.90;;;;;;4901095;29;20457;-83
2021/08/22 06:01:24;;;;;;;2.00;1.10;;;17.40;99.90;;;;;;4900555;29;20464;-83
2021/08/22 06:03:51;;;;;;;0.90;0.50;;;17.40;99.90;;;;;;4900346;29;20996;-83
2021/08/22 06:06:20;;;;;;;1.33;1.10;;;17.40;99.90;;;;;;4900584;29;20532;-83
2021/08/22 06:08:47;;;;;;;0.93;0.67;;;17.50;99.90;;;;;;4900674;29;20445;-83
2021/08/22 06:11:13;;;;;;;1.40;0.83;;;17.50;99.90;;;;;;4900275;29;20449;-83
2021/08/22 06:13:40;;;;;;;0.70;0.60;;;17.50;99.90;;;;;;4900189;29;21111;-83
2021/08/22 06:16:07;;;;;;;2.53;1.13;;;17.50;99.90;;;;;;4900359;29;20445;-83
2021/08/22 06:18:34;;;;;;;0.50;0.50;;;17.60;99.90;;;;;;4900417;29;20448;-84
2021/08/22 06:21:00;;;;;;;1.47;1.00;;;17.50;99.90;;;;;;4900395;29;20453;-82
2021/08/22 06:23:29;;;;;;;0.50;0.50;;;17.50;99.90;;;;;;4900071;29;20489;-82
2021/08/22 06:25:55;;;;;;;0.83;0.70;;;17.50;99.90;;;;;;4900317;29;20484;-82
2021/08/22 06:28:22;;;;;;;0.50;0.50;;;17.50;99.90;;;;;;4900454;29;20448;-81
2021/08/22 06:30:49;;;;;;;3.43;1.20;;;17.50;99.90;;;;;;4900370;29;20449;-82
2021/08/22 06:33:16;;;;;;;1.33;1.00;;;17.50;99.90;;;;;;4900194;29;21008;-82
2021/08/22 06:35:42;;;;;;;1.70;0.87;;;17.50;99.90;;;;;;4900070;29;20452;-82
2021/08/22 06:38:09;;;;;;;1.57;0.70;;;17.60;99.90;;;;;;4900657;29;20464;-81
2021/08/22 06:40:37;;;;;;;1.03;0.50;;;17.60;99.90;;;;;;4899894;29;20448;-84
2021/08/22 06:43:04;;;;;;;1.03;1.00;;;17.60;99.90;;;;;;4898757;29;20489;-84
2021/08/22 06:45:31;;;;;;;0.97;0.87;;;17.70;99.90;;;;;;4899584;29;20453;-84
2021/08/22 06:47:58;;;;;;;1.27;0.93;;;17.70;99.90;;;;;;4899898;29;20953;-80
2021/08/22 06:50:25;;;;;;;1.37;0.73;;;17.80;99.90;;;;;;4899380;29;20453;-80
2021/08/22 06:52:53;;;;;;;1.00;0.60;;;17.90;99.90;;;;;;4899271;29;21001;-81
2021/08/22 06:55:19;;;;;;;0.60;0.50;;;17.90;99.90;;;;;;4899419;29;20810;-80
2021/08/22 06:57:48;;;;;;;2.80;1.03;;;18.00;99.90;;;;;;4900335;29;20453;-83
2021/08/22 07:00:17;;;;;;;0.60;0.60;;;18.00;99.90;;;;;;4899635;29;20433;-84
2021/08/22 07:02:45;;;;;;;3.70;1.43;;;18.10;99.90;;;;;;4899738;29;20532;-84
2021/08/22 07:05:15;;;;;;;1.73;1.33;;;18.10;99.90;;;;;;4899653;29;20424;-84
2021/08/22 07:07:42;;;;;;;0.80;0.73;;;18.10;99.90;;;;;;4899433;29;20492;-84
2021/08/22 07:10:10;;;;;;;1.33;0.70;;;18.20;99.90;;;;;;4899211;29;20414;-82
2021/08/22 07:12:38;;;;;;;2.50;1.57;;;18.20;99.90;;;;;;4900085;29;20469;-82
2021/08/22 07:15:07;;;;;;;0.60;0.60;;;18.20;99.90;;;;;;4899512;29;20441;-79
2021/08/22 07:17:33;;;;;;;2.77;1.00;;;18.20;99.90;;;;;;4899352;29;20437;-80
2021/08/22 07:20:00;;;;;;;0.70;0.70;;;18.20;99.90;;;;;;4899061;29;20433;-81
2021/08/22 07:22:27;;;;;;;0.80;0.77;;;18.20;99.90;;;;;;4899121;29;20480;-82
2021/08/22 07:24:56;;;;;;;1.13;0.80;;;18.20;99.90;;;;;;4899371;29;20495;-79
2021/08/22 07:27:23;;;;;;;1.47;0.90;;;18.20;99.90;;;;;;4899091;29;20437;-80
2021/08/22 07:29:50;;;;;;;1.53;0.60;;;18.20;99.90;;;;;;4898725;29;20829;-81
2021/08/22 07:32:18;;;;;;;1.10;0.90;;;18.20;99.90;;;;;;4898982;29;20485;-81
2021/08/22 07:34:45;;;;;;;1.23;1.03;;;18.20;99.90;;;;;;4898780;29;20464;-81
2021/08/22 07:37:12;;;;;;;0.80;0.80;;;18.20;99.90;;;;;;4898672;29;20461;-81
2021/08/22 07:39:38;;;;;;;1.80;0.90;;;18.30;99.90;;;;;;4898784;29;20457;-82
2021/08/22 07:42:06;;;;;;;0.60;0.50;;;18.30;99.90;;;;;;4898758;29;20480;-81
2021/08/22 07:44:32;;;;;;;1.13;0.90;;;18.30;99.90;;;;;;4899010;29;20489;-81
2021/08/22 07:46:59;;;;;;;1.07;0.60;;;18.40;99.90;;;;;;4899023;29;20453;-81
2021/08/22 07:49:27;;;;;;;0.90;0.90;;;18.40;99.90;;;;;;4898704;29;20479;-81
2021/08/22 07:51:54;;;;;;;0.90;0.70;;;18.50;99.90;;;;;;4898417;29;20957;-82
2021/08/22 07:54:20;;;;;;;2.83;1.30;;;18.50;99.90;;;;;;4898025;29;20507;-82
2021/08/22 07:56:47;;;;;;;1.87;0.53;;;18.60;99.90;;;;;;4898616;29;20457;-82
2021/08/22 07:59:15;;;;;;;0.90;0.60;;;18.60;99.90;;;;;;4898612;29;20461;-83
2021/08/22 08:01:41;;;;;;;0.90;0.67;;;18.70;99.90;;;;;;4898476;29;20449;-82
2021/08/22 08:04:08;;;;;;;2.50;0.97;;;18.80;99.90;;;;;;4898447;29;20489;-81
2021/08/22 08:06:36;;;;;;;1.33;1.10;;;18.80;99.90;;;;;;4898485;29;20457;-81
2021/08/22 08:09:04;;;;;;;0.80;0.80;;;18.90;99.90;;;;;;4898381;29;20456;-81
2021/08/22 08:11:31;;;;;;;0.80;0.60;;;19.00;99.90;;;;;;4898252;29;20467;-81
2021/08/22 08:13:58;;;;;;;1.60;0.77;;;18.90;99.90;;;;;;4898214;29;20469;-81
2021/08/22 08:16:25;;;;;;;1.33;0.73;;;19.00;99.90;;;;;;4898197;29;20453;-81
2021/08/22 08:18:51;;;;;;;0.60;0.60;;;19.10;99.90;;;;;;4898309;29;20445;-82
2021/08/22 08:21:18;;;;;;;3.50;1.47;;;19.10;99.90;;;;;;4898273;29;20484;-81
2021/08/22 08:23:46;;;;;;;3.77;1.50;;;19.20;99.90;;;;;;4898167;29;20519;-81
2021/08/22 08:26:13;;;;;;;0.73;0.70;;;19.30;99.90;;;;;;4898557;29;20464;-82
2021/08/22 08:28:40;;;;;;;2.50;1.20;;;19.40;99.90;;;;;;4898134;29;20487;-81
2021/08/22 08:31:07;;;;;;;1.10;0.80;;;19.50;99.90;;;;;;4898171;29;20503;-82
2021/08/22 08:33:34;;;;;;;0.93;0.87;;;19.60;99.90;;;;;;4898088;29;20468;-82
2021/08/22 08:36:03;;;;;;;0.83;0.73;;;19.70;99.90;;;;;;4898393;29;20873;-82
2021/08/22 08:38:30;;;;;;;1.23;1.00;;;19.70;99.90;;;;;;4898012;29;20457;-82
2021/08/22 08:41:03;;;;;;;2.17;1.40;;;19.70;99.90;;;;;;4899161;29;20452;-89
2021/08/22 08:43:30;;;;;;;1.70;1.13;;;19.80;99.90;;;;;;4899099;29;20516;-89
2021/08/22 08:45:57;;;;;;;1.73;0.93;;;19.80;99.90;;;;;;4898866;29;20810;-89
2021/08/22 08:48:25;;;;;;;1.00;0.90;;;19.90;99.90;;;;;;4899285;29;20460;-89
2021/08/22 08:51:04;;;;;;;2.13;1.10;;;19.90;99.90;;;;;;4899410;29;20870;-88
2021/08/22 08:53:33;;;;;;;1.80;0.70;;;20.00;99.90;;;;;;4898383;29;20480;-88
2021/08/22 08:56:01;;;;;;;1.20;1.10;;;20.00;99.90;;;;;;4898812;29;20472;-89
2021/08/22 08:58:28;;;;;;;0.83;0.60;;;20.00;99.90;;;;;;4898637;29;20441;-88
2021/08/22 09:00:54;;;;;;;2.07;0.70;;;20.10;99.90;;;;;;4898553;29;20463;-88
2021/08/22 09:03:23;;;;;;;1.37;0.87;;;20.00;99.90;;;;;;4898307;29;21014;-88
2021/08/22 09:06:29;;;;;;;1.10;1.00;;;20.10;99.90;;;;;;4899226;29;20492;-81
2021/08/22 09:09:41;;;;;;;2.40;0.77;;;20.00;99.90;;;;;;4901352;29;20785;-81
2021/08/22 09:12:55;;;;;;;1.83;1.37;;;20.00;99.90;;;;;;4901932;29;20989;-81
2021/08/22 09:16:07;;;;;;;1.00;0.90;;;19.90;99.90;;;;;;4901516;29;20538;-81
2021/08/22 09:19:12;;;;;;;1.47;1.13;;;19.90;99.90;;;;;;4901077;29;20924;-81
2021/08/22 09:22:27;;;;;;;0.70;0.60;;;19.80;99.90;;;;;;4901130;29;20438;-81
2021/08/22 09:25:31;;;;;;;0.90;0.70;;;19.90;99.90;;;;;;4880482;29;20493;-81
2021/08/22 09:28:33;;;;;;;1.80;1.00;;;19.90;99.90;;;;;;4903099;29;20437;-87
2021/08/22 09:31:39;;;;;;;1.53;1.17;;;20.00;99.90;;;;;;4894987;29;20499;-88
2021/08/22 09:34:48;;;;;;;1.00;0.60;;;20.10;99.90;;;;;;4901894;29;20459;-81
2021/08/22 09:38:03;;;;;;;0.70;0.70;;;20.20;99.90;;;;;;4901113;29;20444;-81
2021/08/22 09:41:06;;;;;;;2.63;1.37;;;20.30;99.90;;;;;;4900867;29;20459;-81
2021/08/22 09:44:10;;;;;;;2.07;1.43;;;20.40;99.90;;;;;;4900973;29;20471;-80
2021/08/22 09:47:29;;;;;;;0.73;0.70;;;20.50;99.90;;;;;;4900983;29;20459;-81
2021/08/22 09:50:33;;;;;;;0.87;0.80;;;20.50;99.90;;;;;;4879891;29;20454;-81
2021/08/22 09:53:41;;;;;;;0.80;0.80;;;20.60;99.90;;;;;;4879679;29;20580;-81
2021/08/22 09:56:54;;;;;;;1.00;0.70;;;20.60;99.90;;;;;;4855284;29;20456;-81
2021/08/22 09:59:56;;;;;;;2.07;0.83;;;20.60;99.90;;;;;;4900672;29;20461;-81
2021/08/22 10:03:00;;;;;;;1.70;0.97;;;20.60;99.90;;;;;;4889487;29;20476;-81
2021/08/22 10:06:00;;;;;;;1.60;1.47;;;20.50;99.90;;;;;;4900578;29;20480;-81
2021/08/22 10:08:33;;;;;;;3.63;1.87;;;20.40;99.90;;;;;;4900360;29;20433;-87
2021/08/22 10:11:01;;;;;;;0.83;0.60;;;20.40;99.90;;;;;;4900961;29;20924;-87
2021/08/22 10:13:30;;;;;;;4.20;1.30;;;20.30;99.90;;;;;;4900554;29;20841;-86
2021/08/22 10:15:57;;;;;;;1.27;0.80;;;20.30;99.90;;;;;;4900711;29;20547;-87
2021/08/22 10:18:24;;;;;;;1.50;1.10;;;20.20;99.90;;;;;;4901138;29;20447;-87
2021/08/22 10:20:53;;;;;;;1.47;0.97;;;20.20;99.90;;;;;;4900892;29;20822;-87
2021/08/22 10:23:49;;;;;;;1.97;1.40;;;20.10;99.90;;;;;;4900597;29;20552;-87
2021/08/22 10:26:52;;;;;;;1.63;0.73;;;20.10;99.90;;;;;;4901111;29;20460;-87
2021/08/22 10:29:25;;;;;;;0.87;0.77;;;20.00;99.90;;;;;;4879893;29;20456;-87
2021/08/22 10:32:14;;;;;;;2.00;0.93;;;19.90;99.90;;;;;;4897226;29;20493;-88
2021/08/22 10:34:47;;;;;;;0.93;0.80;;;19.80;99.90;;;;;;4900850;29;20452;-86
2021/08/22 10:37:29;;;;;;;1.53;0.97;;;19.70;99.90;;;;;;4900691;29;20528;-86
2021/08/22 10:39:56;;;;;;;1.73;1.10;;;19.70;99.90;;;;;;4900252;29;20538;-86
2021/08/22 10:42:26;;;;;;;2.83;1.30;;;19.60;99.90;;;;;;4900045;29;20481;-85
2021/08/22 10:44:55;;;;;;;1.33;1.07;;;19.60;99.90;;;;;;4899576;29;20907;-84
2021/08/22 10:47:41;;;;;;;1.60;0.80;;;19.50;99.90;;;;;;4899791;29;20464;-84
2021/08/22 10:50:08;;;;;;;2.07;0.73;;;19.50;99.90;;;;;;4900039;29;20508;-86
2021/08/22 10:52:36;;;;;;;1.90;1.27;;;19.40;99.90;;;;;;4899792;29;20504;-86
2021/08/22 10:55:32;;;;;;;0.90;0.70;;;19.50;99.90;;;;;;4899849;29;20449;-83
2021/08/22 10:57:59;;;;;;;1.67;0.90;;;19.50;99.90;;;;;;4899506;29;20643;-82
2021/08/22 11:00:28;;;;;;;1.13;0.60;;;19.50;99.90;;;;;;4899665;29;20544;-82
2021/08/22 11:02:56;;;;;;;1.13;0.93;;;19.50;99.90;;;;;;4899525;29;20480;-83
2021/08/22 11:05:24;;;;;;;1.00;0.80;;;19.50;99.90;;;;;;4899286;29;20491;-84
2021/08/22 11:07:52;;;;;;;1.63;0.90;;;19.50;99.90;;;;;;4899219;29;20456;-83
2021/08/22 11:10:20;;;;;;;1.40;1.13;;;19.60;99.90;;;;;;4899246;29;20819;-83
2021/08/22 11:12:47;;;;;;;1.20;1.10;;;19.60;99.90;;;;;;4899704;29;20477;-84
2021/08/22 11:15:23;;;;;;;3.10;1.80;;;19.70;99.90;;;;;;4899297;29;20453;-81
2021/08/22 11:17:53;;;;;;;1.30;1.00;;;19.70;99.90;;;;;;4898962;29;20444;-82
2021/08/22 11:20:21;;;;;;;2.23;0.80;;;19.70;99.90;;;;;;4899289;29;20444;-82
2021/08/22 11:22:50;;;;;;;1.43;0.73;;;19.80;99.90;;;;;;4899163;29;20481;-81
2021/08/22 11:25:18;;;;;;;1.07;0.70;;;19.80;99.90;;;;;;4899153;29;20488;-82
2021/08/22 11:27:47;;;;;;;0.80;0.63;;;19.80;99.90;;;;;;4898541;29;20489;-82
2021/08/22 11:30:14;;;;;;;2.23;1.33;;;19.90;99.90;;;;;;4899215;29;20468;-86
2021/08/22 11:32:52;;;;;;;2.50;1.50;;;19.90;99.90;;;;;;4899388;29;20484;-87
2021/08/22 11:35:21;;;;;;;2.17;0.90;;;19.80;99.90;;;;;;4900106;29;20855;-86
2021/08/22 11:37:48;;;;;;;2.00;0.80;;;19.80;99.90;;;;;;4899419;29;20460;-86
2021/08/22 11:40:16;;;;;;;1.30;1.03;;;19.80;99.90;;;;;;4899111;29;20461;-86
2021/08/22 11:42:47;;;;;;;0.70;0.60;;;19.70;99.90;;;;;;4899263;29;20484;-84
2021/08/22 11:45:16;;;;;;;1.13;1.00;;;19.70;99.90;;;;;;4898815;29;20496;-84
2021/08/22 11:47:43;;;;;;;0.77;0.63;;;19.70;99.90;;;;;;4898561;29;20535;-84
2021/08/22 11:50:14;;;;;;;1.10;0.77;;;19.70;99.90;;;;;;4898723;29;20967;-83
2021/08/22 11:52:44;;;;;;;0.50;0.47;;;19.60;99.90;;;;;;4898556;29;20493;-82
2021/08/22 11:55:12;;;;;;;0.80;0.60;;;19.50;99.90;;;;;;4898750;29;20453;-82
2021/08/22 11:57:39;;;;;;;0.70;0.57;;;19.40;99.90;;;;;;4898552;29;20461;-83
2021/08/22 12:00:08;;;;;;;1.40;0.60;;;19.30;99.90;;;;;;4898379;29;20441;-82
2021/08/22 12:02:35;;;;;;;1.07;0.73;;;19.20;99.90;;;;;;4898206;29;20468;-82
2021/08/22 12:05:17;;;;;;;1.67;0.70;;;19.10;99.90;;;;;;4898283;29;20484;-82
2021/08/22 12:07:45;;;;;;;0.77;0.47;;;19.00;99.90;;;;;;4898506;29;20463;-82
2021/08/22 12:10:24;;;;;;;0.70;0.67;;;18.90;99.90;;;;;;4898230;29;20448;-82
2021/08/22 12:12:51;;;;;;;1.07;0.60;;;18.80;99.90;;;;;;4898298;29;20473;-82
2021/08/22 12:15:19;;;;;;;0.87;0.63;;;18.70;99.90;;;;;;4898228;29;20449;-82
2021/08/22 12:17:46;;;;;;;1.43;0.40;;;18.60;99.90;;;;;;4898408;29;20452;-83
2021/08/22 12:20:19;;;;;;;0.60;0.40;;;18.50;99.90;;;;;;4898780;29;20465;-83
2021/08/22 12:23:05;;;;;;;0.70;0.70;;;18.40;99.90;;;;;;4898293;29;20821;-83
2021/08/22 12:25:32;;;;;;;1.03;0.60;;;18.40;99.90;;;;;;4898404;29;20480;-83
2021/08/22 12:28:21;;;;;;;0.43;0.40;;;18.30;99.90;;;;;;4898026;29;20456;-83
2021/08/22 12:30:50;;;;;;;0.93;0.40;;;18.20;99.90;;;;;;4898258;29;20456;-83
2021/08/22 12:33:28;;;;;;;0.40;0.37;;;18.10;99.90;;;;;;4897977;29;20521;-83
2021/08/22 12:36:04;;;;;;;0.40;0.40;;;18.00;99.90;;;;;;4898301;29;20839;-83
2021/08/22 12:38:57;;;;;;;0.60;0.30;;;17.90;99.90;;;;;;4898968;29;20504;-86
2021/08/22 12:41:39;;;;;;;0.30;0.30;;;17.80;99.90;;;;;;4899632;29;20977;-85
2021/08/22 12:44:08;;;;;;;0.40;0.40;;;17.80;99.90;;;;;;4902514;29;20472;-86
2021/08/22 12:46:36;;;;;;;0.40;0.30;;;17.70;99.90;;;;;;4902139;29;20484;-85
2021/08/22 12:49:04;;;;;;;0.40;0.30;;;17.70;99.90;;;;;;4902100;29;20453;-87
2021/08/22 12:51:33;;;;;;;1.10;0.50;;;17.70;99.90;;;;;;4902468;29;20464;-86
2021/08/22 12:54:00;;;;;;;0.30;0.30;;;17.60;99.90;;;;;;4901776;29;20504;-86
2021/08/22 12:56:27;;;;;;;0.40;0.30;;;17.60;99.90;;;;;;4902141;29;20453;-86
2021/08/22 12:58:55;;;;;;;0.60;0.33;;;17.60;99.90;;;;;;4902241;29;20461;-86
2021/08/22 13:01:22;;;;;;;0.40;0.40;;;17.60;99.90;;;;;;4901834;29;20464;-87
2021/08/22 13:03:50;;;;;;;0.30;0.30;;;17.60;99.90;;;;;;4902110;29;20481;-86
2021/08/22 13:06:17;;;;;;;0.50;0.40;;;17.60;99.90;;;;;;4901840;29;20500;-87
2021/08/22 13:08:45;;;;;;;1.03;0.30;;;17.70;99.90;;;;;;4901716;29;20489;-82
2021/08/22 13:11:12;;;;;;;1.13;0.50;;;17.70;99.90;;;;;;4901665;29;20471;-82
2021/08/22 13:13:39;;;;;;;0.30;0.30;;;17.70;99.90;;;;;;4901576;29;20516;-83
2021/08/22 13:16:07;;;;;;;0.40;0.40;;;17.70;99.90;;;;;;4901612;29;20449;-83
2021/08/22 13:18:34;;;;;;;0.83;0.83;;;17.60;99.90;;;;;;4901758;29;20455;-83
2021/08/22 13:21:02;;;;;;;0.50;0.30;;;17.70;99.90;;;;;;4901213;29;21016;-83
2021/08/22 13:23:30;;;;;;;0.80;0.80;;;17.60;99.90;;;;;;4901369;29;20465;-83
2021/08/22 13:25:58;;;;;;;0.70;0.40;;;17.60;99.90;;;;;;4901331;29;20492;-83
2021/08/22 13:28:25;;;;;;;0.63;0.30;;;17.50;99.90;;;;;;4901090;29;20934;-84
2021/08/22 13:30:52;;;;;;;0.50;0.33;;;17.50;99.90;;;;;;4901109;29;20457;-83
2021/08/22 13:33:19;;;;;;;0.43;0.40;;;17.50;99.90;;;;;;4901292;29;20472;-83
2021/08/22 13:35:46;;;;;;;0.40;0.30;;;17.50;99.90;;;;;;4900957;29;20969;-81